EA3AGQ-1 Montsec d\\\'Ares ES current weather conditions

sailwx.info

Wind from 293 at 13 knots gusting 13

Air temperature 15.6° C
Dewpoint -0.7° C

Last reported at 2019-Sep-16 22:06 UTC.
Time now 2019-Sep-16 22:59 UTC

Location: N 42°02' E 000°47'.
View on Google Maps.

See reports from other nearby stations

  
Tides and Currents Weather Stations Pressure Air Temp Water Temp Dewpoint Dewpoint Depression Visibility Wind Speed Wind Dir Waves Ship Positions
date/time (UTC)wind fromknots sea level pressurealtimeterstation pressurevisibilityair tempwater tempwave heightnotes
2019-Sep-16 22:06 293 13 gusting 13 15.6
2019-Sep-16 22:01 292 13 gusting 14 15.6
2019-Sep-16 21:56 292 11 gusting 13 15.6
2019-Sep-16 21:51 293 9 gusting 9 15.6
2019-Sep-16 21:46 291 7 gusting 8 15.6
2019-Sep-16 21:41 290 7 gusting 7 16.1
2019-Sep-16 21:36 289 7 gusting 7 16.1
2019-Sep-16 21:31 294 6 gusting 6 16.1
2019-Sep-16 21:26 301 15.6
2019-Sep-16 21:21 301 15.6
2019-Sep-16 21:16 301 15.6
2019-Sep-16 21:11 301 2 gusting 1 15.6
2019-Sep-16 21:06 302 6 gusting 5 16.1
2019-Sep-16 21:01 320 6 gusting 6 16.1
2019-Sep-16 20:56 064 4 gusting 4 16.1
2019-Sep-16 20:51 075 3 gusting 2 15.6
2019-Sep-16 20:46 080 3 gusting 3 15.6
2019-Sep-16 20:41 094 2 gusting 3 15.6
2019-Sep-16 20:36 098 3 gusting 3 15.6
2019-Sep-16 20:31 097 4 gusting 4 15.6
2019-Sep-16 20:26 103 4 gusting 4 16.1
2019-Sep-16 20:16 097 5 gusting 6 16.1
2019-Sep-16 20:11 094 5 gusting 4 16.1
2019-Sep-16 20:06 096 6 gusting 6 16.1
2019-Sep-16 20:01 089 5 gusting 5 15.6
2019-Sep-16 19:56 092 5 gusting 4 16.1
2019-Sep-16 19:51 089 6 gusting 6 16.1
2019-Sep-16 19:46 088 6 gusting 6 16.1
2019-Sep-16 19:41 083 6 gusting 5 16.1
2019-Sep-16 19:36 083 5 gusting 5 16.1
2019-Sep-16 19:31 082 5 gusting 6 16.1
2019-Sep-16 19:26 083 6 gusting 5 16.1
2019-Sep-16 19:21 076 6 gusting 6 16.1
2019-Sep-16 19:16 079 6 gusting 6 16.1
2019-Sep-16 19:11 079 6 gusting 4 16.1
2019-Sep-16 19:06 078 5 gusting 5 16.1
2019-Sep-16 19:01 074 4 gusting 4 16.7
2019-Sep-16 18:56 077 5 gusting 5 16.7
2019-Sep-16 18:51 080 5 gusting 6 16.7
2019-Sep-16 18:46 074 6 gusting 5 16.7
2019-Sep-16 18:41 083 5 gusting 5 16.7
2019-Sep-16 18:36 082 5 gusting 6 16.7
2019-Sep-16 18:31 096 6 gusting 6 16.7
2019-Sep-16 18:26 125 5 gusting 5 16.7
2019-Sep-16 18:21 106 6 gusting 5 16.7
2019-Sep-16 18:16 097 6 gusting 6 16.7
2019-Sep-16 18:11 122 5 gusting 6 16.7
2019-Sep-16 18:06 105 6 gusting 7 17.2
2019-Sep-16 18:01 106 7 gusting 7 17.2
2019-Sep-16 17:56 103 6 gusting 6 17.2
2019-Sep-16 17:51 099 5 gusting 5 17.2
2019-Sep-16 17:46 095 3 gusting 4 17.2
2019-Sep-16 17:41 066 3 gusting 4 17.2
2019-Sep-16 17:36 057 4 gusting 5 17.8
2019-Sep-16 17:31 053 5 gusting 5 17.8
2019-Sep-16 17:26 068 3 gusting 5 17.8
2019-Sep-16 17:21 048 3 gusting 5 17.8
2019-Sep-16 17:16 028 4 gusting 3 17.8
2019-Sep-16 17:11 025 1 17.8
2019-Sep-16 17:06 028 5 gusting 3 18.3
2019-Sep-16 17:01 039 5 gusting 5 17.8
2019-Sep-16 16:56 004 4 gusting 3 17.8
2019-Sep-16 16:51 008 5 gusting 3 17.8
2019-Sep-16 16:46 004 4 gusting 6 17.8
2019-Sep-16 16:41 010 6 gusting 5 18.3
2019-Sep-16 16:36 006 3 gusting 4 18.3
2019-Sep-16 16:31 037 4 gusting 6 18.9
2019-Sep-16 16:26 356 6 gusting 5 18.9
2019-Sep-16 16:21 030 5 gusting 4 19.4
2019-Sep-16 16:16 029 5 gusting 4 19.4
2019-Sep-16 16:11 046 6 gusting 6 19.4
2019-Sep-16 16:06 015 5 gusting 5 19.4
2019-Sep-16 16:01 061 3 gusting 6 20.0
2019-Sep-16 15:56 068 2 20.0
2019-Sep-16 15:51 074 2 gusting 2 20.0
2019-Sep-16 15:46 077 6 gusting 6 19.4
2019-Sep-16 15:41 091 5 gusting 5 19.4
2019-Sep-16 15:31 091 4 gusting 5 18.9
2019-Sep-16 15:26 087 6 gusting 6 18.3
2019-Sep-16 15:21 079 6 gusting 4 17.2
2019-Sep-16 15:16 037 3 gusting 3 15.6
2019-Sep-16 15:06 315 10 gusting 7 15.6
2019-Sep-16 15:01 313 9 gusting 10 16.1
2019-Sep-16 14:56 014 4 gusting 6 18.9
2019-Sep-16 14:51 021 3 gusting 1 19.4
2019-Sep-16 14:46 074 4 gusting 8 20.6
2019-Sep-16 14:41 110 10 gusting 10 21.1
2019-Sep-16 14:36 103 6 gusting 6 21.7
2019-Sep-16 14:31 097 9 gusting 6 21.7
2019-Sep-16 14:26 351 4 gusting 2 22.2
2019-Sep-16 14:21 327 3 gusting 4 22.8
2019-Sep-16 14:16 053 3 gusting 4 23.3
2019-Sep-16 14:11 079 6 gusting 5 24.4
2019-Sep-16 14:06 072 6 gusting 8 25.0
2019-Sep-16 14:01 093 8 gusting 10 24.4
2019-Sep-16 13:51 184 3 gusting 6 22.8
2019-Sep-16 13:46 069 6 gusting 5 23.3
2019-Sep-16 13:41 129 5 gusting 6 23.3
2019-Sep-16 13:36 197 6 gusting 9 23.3
2019-Sep-16 13:26 211 4 gusting 5 23.3
2019-Sep-16 13:21 164 3 gusting 4 23.9
2019-Sep-16 13:16 165 4 gusting 6 23.9
2019-Sep-16 13:11 123 7 gusting 4 23.9
2019-Sep-16 13:06 090 4 gusting 5 23.9
2019-Sep-16 13:01 120 6 gusting 5 24.4
2019-Sep-16 12:56 119 4 gusting 8 23.9
2019-Sep-16 12:51 177 2 gusting 5 23.3
2019-Sep-16 12:46 223 5 gusting 5 22.8
2019-Sep-16 12:41 088 8 gusting 8 22.8
2019-Sep-16 12:36 094 6 gusting 7 22.2
2019-Sep-16 12:31 068 9 gusting 7 22.8
2019-Sep-16 12:26 229 6 gusting 4 22.2
2019-Sep-16 12:21 229 5 gusting 3 22.8
2019-Sep-16 12:16 191 6 gusting 3 22.2
2019-Sep-16 12:11 139 9 gusting 13 23.3
2019-Sep-16 12:06 096 9 gusting 9 22.8
2019-Sep-16 12:01 284 5 gusting 6 22.2
2019-Sep-16 11:56 205 5 gusting 4 21.1
2019-Sep-16 11:51 195 6 gusting 3 21.7
2019-Sep-16 11:46 074 9 gusting 5 22.2
2019-Sep-16 11:41 147 7 gusting 7 23.3
2019-Sep-16 11:36 138 6 gusting 4 22.8
2019-Sep-16 11:31 132 8 gusting 7 22.8
2019-Sep-16 11:26 235 6 gusting 3 22.8
2019-Sep-16 11:21 082 5 gusting 9 22.8
2019-Sep-16 11:16 195 4 gusting 3 22.8
2019-Sep-16 11:11 053 3 gusting 4 22.8
2019-Sep-16 11:06 084 6 gusting 4 22.8
2019-Sep-16 11:01 337 4 gusting 6 22.8
2019-Sep-16 10:56 122 6 gusting 4 22.2
2019-Sep-16 10:51 186 6 gusting 3 22.2
2019-Sep-16 10:46 228 3 gusting 6 21.7
2019-Sep-16 10:41 162 5 gusting 4 21.7
2019-Sep-16 10:36 140 6 gusting 8 21.1
2019-Sep-16 10:31 071 5 gusting 5 21.7
2019-Sep-16 10:26 117 4 gusting 6 21.1
2019-Sep-16 10:21 094 7 gusting 11 21.1
2019-Sep-16 10:16 094 6 gusting 3 21.1
2019-Sep-16 10:11 154 5 gusting 3 21.1
2019-Sep-16 10:06 091 10 gusting 12 21.1
2019-Sep-16 10:01 063 5 gusting 4 21.1
2019-Sep-16 09:56 111 10 gusting 6 21.1
2019-Sep-16 09:51 109 5 gusting 7 21.1
2019-Sep-16 09:46 095 8 gusting 10 21.1
2019-Sep-16 09:41 100 11 gusting 10 20.6
2019-Sep-16 09:36 103 7 gusting 9 20.6
2019-Sep-16 09:31 038 6 gusting 4 20.6
2019-Sep-16 09:26 085 6 gusting 10 20.6
2019-Sep-16 09:21 099 11 gusting 10 20.0
2019-Sep-16 09:16 080 10 gusting 12 20.0
2019-Sep-16 09:11 100 13 gusting 13 20.0
2019-Sep-16 09:06 125 10 gusting 6 19.4
2019-Sep-16 09:01 081 12 gusting 9 19.4
2019-Sep-16 08:56 092 13 gusting 11 19.4
2019-Sep-16 08:51 090 12 gusting 13 18.9
2019-Sep-16 08:46 108 13 gusting 6 18.9
2019-Sep-16 08:41 098 15 gusting 16 18.9
2019-Sep-16 08:36 092 14 gusting 11 18.9
2019-Sep-16 08:31 096 15 gusting 14 18.3
2019-Sep-16 08:26 107 12 gusting 14 18.3
2019-Sep-16 08:21 101 14 gusting 10 18.3
2019-Sep-16 08:16 094 14 gusting 13 18.3
2019-Sep-16 08:11 101 11 gusting 14 17.8
2019-Sep-16 08:06 098 14 gusting 16 17.8
2019-Sep-16 08:01 098 15 gusting 14 17.8
2019-Sep-16 07:58 096 15 gusting 14 17.8
2019-Sep-16 07:51 100 13 gusting 14 17.2
2019-Sep-16 07:46 095 13 gusting 14 16.7
2019-Sep-16 07:41 086 12 gusting 13 16.7
2019-Sep-16 07:36 090 13 gusting 12 16.7
2019-Sep-16 07:31 086 12 gusting 10 17.2
2019-Sep-16 07:26 090 11 gusting 11 17.2
2019-Sep-16 07:21 089 11 gusting 7 17.2
2019-Sep-16 07:16 087 12 gusting 8 17.2
2019-Sep-16 07:11 097 11 gusting 13 16.7
2019-Sep-16 07:06 101 13 gusting 11 16.7
2019-Sep-16 06:56 088 16 gusting 15 16.7
2019-Sep-16 06:51 086 14 gusting 13 16.1
2019-Sep-16 06:46 093 12 gusting 12 16.1
2019-Sep-16 06:41 083 10 gusting 12 15.6
2019-Sep-16 06:36 098 6 gusting 9 15.6
2019-Sep-16 06:26 087 7 gusting 6 15.6
2019-Sep-16 06:21 064 8 gusting 7 16.1
2019-Sep-16 06:16 053 8 gusting 7 16.1
2019-Sep-16 06:11 068 9 gusting 9 15.6
2019-Sep-16 06:06 060 9 gusting 11 16.1
2019-Sep-16 06:01 038 10 gusting 10 15.6
2019-Sep-16 05:56 030 8 gusting 10 15.6
2019-Sep-16 05:51 038 8 gusting 6 15.6
2019-Sep-16 05:46 047 8 gusting 8 15.6
2019-Sep-16 05:41 040 7 gusting 12 15.6
2019-Sep-16 05:36 028 10 gusting 11 15.6
2019-Sep-16 05:31 041 10 gusting 8 15.6
2019-Sep-16 05:26 055 9 gusting 10 15.6
2019-Sep-16 05:21 058 7 gusting 7 15.6
2019-Sep-16 05:16 032 9 gusting 6 15.6
2019-Sep-16 05:11 048 8 gusting 10 15.6
2019-Sep-16 05:06 027 9 gusting 11 15.6
2019-Sep-16 04:56 005 10 gusting 10 15.6
2019-Sep-16 04:51 014 10 gusting 11 15.6
2019-Sep-16 04:46 356 9 gusting 10 15.6
2019-Sep-16 04:36 016 9 gusting 9 15.6
2019-Sep-16 04:31 007 10 gusting 9 15.6
2019-Sep-16 04:26 030 10 gusting 12 15.0
2019-Sep-16 04:21 026 9 gusting 8 15.0
2019-Sep-16 04:16 030 9 gusting 7 15.0
2019-Sep-16 04:12 013 8 gusting 9 15.0
2019-Sep-16 04:06 008 9 gusting 9 15.0
2019-Sep-16 04:01 014 10 gusting 10 15.0
2019-Sep-16 03:56 016 9 gusting 8 15.0
2019-Sep-16 03:51 018 10 gusting 9 15.0
2019-Sep-16 03:46 003 9 gusting 9 15.0
2019-Sep-16 03:41 001 10 gusting 10 15.0
2019-Sep-16 03:36 356 9 gusting 9 15.0
2019-Sep-16 03:31 002 9 gusting 9 15.0
2019-Sep-16 03:26 351 9 gusting 8 14.4
2019-Sep-16 03:21 351 10 gusting 11 14.4
2019-Sep-16 03:16 341 10 gusting 10 14.4
2019-Sep-16 03:12 345 10 gusting 10 14.4
2019-Sep-16 03:06 341 11 gusting 10 14.4
2019-Sep-16 03:01 344 11 gusting 11 14.4
2019-Sep-16 02:56 347 9 gusting 11 14.4
2019-Sep-16 02:52 351 8 gusting 9 14.4
2019-Sep-16 02:46 356 10 gusting 9 14.4
2019-Sep-16 02:36 356 8 gusting 8 14.4
2019-Sep-16 02:31 356 8 gusting 10 14.4
2019-Sep-16 02:26 351 8 gusting 7 14.4
2019-Sep-16 02:21 356 8 gusting 7 14.4
2019-Sep-16 02:16 356 8 gusting 8 14.4
2019-Sep-16 02:11 351 7 gusting 7 14.4
2019-Sep-16 02:06 356 8 gusting 7 14.4
2019-Sep-16 02:01 014 7 gusting 8 14.4
2019-Sep-16 01:56 016 8 gusting 7 14.4
2019-Sep-16 01:51 018 7 gusting 7 15.0
2019-Sep-16 01:46 049 7 gusting 6 15.0
2019-Sep-16 01:41 059 7 gusting 8 15.0
2019-Sep-16 01:36 066 8 gusting 6 15.0
2019-Sep-16 01:31 060 9 gusting 9 15.0
2019-Sep-16 01:26 076 6 gusting 8 15.0
2019-Sep-16 01:21 077 9 gusting 9 15.0
2019-Sep-16 01:16 075 9 gusting 10 15.0
2019-Sep-16 01:11 077 10 gusting 10 15.0
2019-Sep-16 01:06 068 10 gusting 10 15.0
2019-Sep-16 01:01 076 11 gusting 8 15.0
2019-Sep-16 00:57 075 9 gusting 10 15.0
2019-Sep-16 00:51 079 9 gusting 9 15.0
2019-Sep-16 00:47 066 9 gusting 9 15.0
2019-Sep-16 00:41 068 10 gusting 10 15.0
2019-Sep-16 00:36 076 9 gusting 8 15.0
2019-Sep-16 00:26 059 8 gusting 8 15.0
2019-Sep-16 00:21 057 8 gusting 6 15.0
2019-Sep-16 00:16 066 9 gusting 9 15.0
2019-Sep-16 00:11 077 10 gusting 9 15.0
2019-Sep-16 00:06 072 9 gusting 9 15.0
2019-Sep-16 00:01 068 11 gusting 11 15.0
2019-Sep-15 23:56 068 9 gusting 10 14.4
2019-Sep-15 23:52 064 10 gusting 10 14.4
2019-Sep-15 23:47 076 11 gusting 11 14.4
2019-Sep-15 23:37 085 12 gusting 12 14.4
2019-Sep-15 23:31 086 12 gusting 12 14.4
2019-Sep-15 23:26 084 11 gusting 11 14.4
2019-Sep-15 23:21 087 12 gusting 11 14.4
2019-Sep-15 23:16 090 12 gusting 11 13.9
2019-Sep-15 23:12 093 12 gusting 13 13.9
2019-Sep-15 23:06 101 10 gusting 10 14.4
2019-Sep-15 22:56 099 10 gusting 10 14.4
2019-Sep-15 22:51 105 10 gusting 14 14.4
2019-Sep-15 22:46 108 13 gusting 10 14.4
2019-Sep-15 22:41 097 14 gusting 14 14.4
2019-Sep-15 22:36 098 15 gusting 13 14.4
2019-Sep-15 22:31 091 12 gusting 14 14.4
2019-Sep-15 22:26 097 12 gusting 12 14.4
2019-Sep-15 22:11 091 12 gusting 14 14.4
2019-Sep-15 22:06 094 11 gusting 14 14.4
2019-Sep-15 22:01 096 12 gusting 15 14.4
2019-Sep-15 21:56 092 12 gusting 16 14.4
2019-Sep-15 21:52 102 13 gusting 13 15.0
2019-Sep-15 21:46 085 14 gusting 13 15.0
2019-Sep-15 21:37 084 15 gusting 17 15.0
2019-Sep-15 21:31 085 15 gusting 13 15.0
2019-Sep-15 21:26 091 15 gusting 13 15.0
2019-Sep-15 21:21 089 15 gusting 15 15.0
2019-Sep-15 21:16 085 15 gusting 17 15.0
2019-Sep-15 21:12 086 15 gusting 18 15.0
2019-Sep-15 21:06 085 17 gusting 16 15.0
2019-Sep-15 21:01 085 15 gusting 16 15.0
2019-Sep-15 20:56 082 16 gusting 16 15.0
2019-Sep-15 20:51 086 17 gusting 14 15.0
2019-Sep-15 20:46 079 17 gusting 16 15.0
2019-Sep-15 20:36 085 15 gusting 13 15.0
2019-Sep-15 20:31 081 14 gusting 18 15.0
2019-Sep-15 20:26 092 16 gusting 16 15.0
2019-Sep-15 20:21 101 16 gusting 14 15.0
2019-Sep-15 20:16 114 19 gusting 15 15.0
2019-Sep-15 20:11 097 19 gusting 17 15.0
2019-Sep-15 20:06 115 17 gusting 17 15.0
2019-Sep-15 20:01 097 19 gusting 19 15.0
2019-Sep-15 19:56 123 12 gusting 15 14.4
2019-Sep-15 19:51 107 13 gusting 7 14.4
2019-Sep-15 19:46 117 6 gusting 11 14.4
2019-Sep-15 19:41 115 11 gusting 14 15.0
2019-Sep-15 19:36 095 13 gusting 13 15.0
2019-Sep-15 19:31 099 14 gusting 15 15.0
2019-Sep-15 19:21 097 17 gusting 20 15.6
2019-Sep-15 19:16 091 13 gusting 19 15.6
2019-Sep-15 19:12 107 12 gusting 14 15.6
2019-Sep-15 19:06 094 16 gusting 13 15.6
2019-Sep-15 18:57 091 14 gusting 16 15.6
2019-Sep-15 18:51 096 19 gusting 13 16.1
2019-Sep-15 18:46 109 16 gusting 13 16.1
2019-Sep-15 18:41 101 18 gusting 14 16.1
2019-Sep-15 18:36 096 15 gusting 18 16.1
2019-Sep-15 18:31 089 16 gusting 14 16.1
2019-Sep-15 18:26 339 13 gusting 6 16.1
2019-Sep-15 18:21 097 15 gusting 13 16.1
2019-Sep-15 18:16 092 14 gusting 15 16.1
2019-Sep-15 18:06 099 14 gusting 12 16.1
2019-Sep-15 18:01 095 11 gusting 13 16.1
2019-Sep-15 17:56 094 16 gusting 17 16.1
2019-Sep-15 17:51 102 13 gusting 20 16.7
2019-Sep-15 17:46 092 19 gusting 18 16.7
2019-Sep-15 17:41 116 14 gusting 21 16.7
2019-Sep-15 17:36 146 13 gusting 8 16.7
2019-Sep-15 17:31 113 18 gusting 16 17.2
2019-Sep-15 17:26 125 10 gusting 20 17.2
2019-Sep-15 17:21 093 19 gusting 7 17.2
2019-Sep-15 17:16 171 10 gusting 20 17.8
2019-Sep-15 17:11 084 19 gusting 11 17.8
2019-Sep-15 17:06 137 8 gusting 14 18.3
2019-Sep-15 17:01 108 14 gusting 19 18.3
2019-Sep-15 16:56 091 13 gusting 13 18.9
2019-Sep-15 16:51 101 15 gusting 11 18.9
2019-Sep-15 16:41 088 14 gusting 19 18.9
2019-Sep-15 16:36 094 16 gusting 14 18.9
2019-Sep-15 16:31 147 10 gusting 18 18.9
2019-Sep-15 16:26 095 22 gusting 20 18.9
2019-Sep-15 16:21 145 9 gusting 6 18.9
2019-Sep-15 16:16 111 17 gusting 18 18.9
2019-Sep-15 16:11 104 15 gusting 8 18.9
2019-Sep-15 16:06 181 10 gusting 10 18.9
2019-Sep-15 15:56 159 7 gusting 7 19.4
2019-Sep-15 15:51 094 15 gusting 14 19.4
2019-Sep-15 15:46 093 10 gusting 12 19.4
2019-Sep-15 15:41 106 17 gusting 14 20.0
2019-Sep-15 15:26 108 14 gusting 18 20.0
2019-Sep-15 15:16 091 13 gusting 14 21.1
2019-Sep-15 15:11 085 16 gusting 13 21.1
2019-Sep-15 15:06 085 13 gusting 18 21.1
2019-Sep-15 15:01 095 13 gusting 8 21.1
2019-Sep-15 14:56 080 11 gusting 10 21.1
2019-Sep-15 14:46 091 10 gusting 10 21.1
2019-Sep-15 14:41 082 13 gusting 9 21.1
2019-Sep-15 14:36 080 14 gusting 13 21.1
2019-Sep-15 14:31 102 12 gusting 15 21.7
2019-Sep-15 14:26 090 13 gusting 16 20.6
2019-Sep-15 14:16 082 13 gusting 15 20.6
2019-Sep-15 14:11 094 14 gusting 15 21.1
2019-Sep-15 14:06 096 14 gusting 16 21.7
2019-Sep-15 14:01 100 13 gusting 16 22.2
2019-Sep-15 13:56 046 15 gusting 15 21.7
2019-Sep-15 13:51 098 19 gusting 17 21.7
2019-Sep-15 13:46 099 16 gusting 14 22.2
2019-Sep-15 13:41 128 10 gusting 11 21.7
2019-Sep-15 13:32 042 7 gusting 8 21.7
2019-Sep-15 13:26 111 13 gusting 8 22.2
2019-Sep-15 13:21 351 11 gusting 13 22.2
2019-Sep-15 13:16 111 11 gusting 11 22.2
2019-Sep-15 13:11 066 12 gusting 6 22.2
2019-Sep-15 13:06 094 13 gusting 10 22.8
2019-Sep-15 13:01 261 8 gusting 7 22.2
2019-Sep-15 12:56 117 6 gusting 6 22.8
2019-Sep-15 12:51 107 6 gusting 7 22.8
2019-Sep-15 12:46 011 6 gusting 6 22.2
2019-Sep-15 12:41 120 6 gusting 14 22.2
2019-Sep-15 12:36 125 6 gusting 16 22.8
2019-Sep-15 12:31 105 12 gusting 7 22.8
2019-Sep-15 12:26 257 6 gusting 12 22.2
2019-Sep-15 12:21 106 4 gusting 12 22.2
2019-Sep-15 12:16 147 9 gusting 10 22.2
2019-Sep-15 12:11 123 7 gusting 7 22.2
2019-Sep-15 12:06 106 7 gusting 6 22.2
2019-Sep-15 12:01 095 13 gusting 6 21.7
2019-Sep-15 11:56 088 17 gusting 8 21.7
2019-Sep-15 11:51 103 14 gusting 11 21.7
2019-Sep-15 11:46 083 17 gusting 17 21.7
2019-Sep-15 11:41 110 19 gusting 18 21.7
2019-Sep-15 11:36 104 12 gusting 16 21.7
2019-Sep-15 11:31 112 15 gusting 14 21.7
2019-Sep-15 11:26 111 13 gusting 13 21.7
2019-Sep-15 11:21 100 13 gusting 12 21.7
2019-Sep-15 11:16 125 11 gusting 7 21.1
2019-Sep-15 11:11 141 14 gusting 6 21.1
2019-Sep-15 11:06 108 13 gusting 15 21.1
2019-Sep-15 11:01 089 16 gusting 12 21.1
2019-Sep-15 10:56 120 15 gusting 14 21.1
2019-Sep-15 10:51 098 14 gusting 12 21.1
2019-Sep-15 10:46 096 12 gusting 13 21.1
2019-Sep-15 10:41 110 7 gusting 14 21.1
2019-Sep-15 10:36 108 13 gusting 14 20.6
2019-Sep-15 10:31 094 12 gusting 10 20.6
2019-Sep-15 10:26 074 11 gusting 10 21.1
2019-Sep-15 10:21 105 12 gusting 10 21.1
2019-Sep-15 10:16 119 11 gusting 14 21.1
2019-Sep-15 10:11 096 9 gusting 14 21.7
2019-Sep-15 10:06 112 8 gusting 12 21.7
2019-Sep-15 10:01 098 12 gusting 6 21.1
2019-Sep-15 09:56 096 13 gusting 12 21.1
2019-Sep-15 09:51 100 7 gusting 13 21.1
2019-Sep-15 09:41 083 8 gusting 13 21.1
2019-Sep-15 09:36 089 10 gusting 9 21.7
2019-Sep-15 09:31 089 11 gusting 7 21.1
2019-Sep-15 09:26 091 6 gusting 6 21.1
2019-Sep-15 09:21 074 10 gusting 6 20.6
2019-Sep-15 09:16 076 13 gusting 10 20.0
2019-Sep-15 09:11 073 10 gusting 13 19.4
2019-Sep-15 09:06 084 10 gusting 11 18.9
2019-Sep-15 09:01 088 12 gusting 12 18.9
2019-Sep-15 08:46 084 15 gusting 15 19.4
2019-Sep-15 08:41 074 16 gusting 16 18.9
2019-Sep-15 08:36 089 15 gusting 16 18.3
2019-Sep-15 08:31 079 13 gusting 10 18.3
2019-Sep-15 08:26 076 15 gusting 13 18.3
2019-Sep-15 08:21 083 15 gusting 10 18.9
2019-Sep-15 08:16 085 15 gusting 13 18.3
2019-Sep-15 08:11 086 17 gusting 18 18.3
2019-Sep-15 08:06 059 18 gusting 13 17.8
2019-Sep-15 07:56 084 14 gusting 12 16.7
2019-Sep-15 07:51 077 16 gusting 19 17.2
2019-Sep-15 07:41 077 17 gusting 15 16.7
2019-Sep-15 07:36 083 15 gusting 16 17.2
2019-Sep-15 07:31 074 15 gusting 17 16.7
2019-Sep-15 07:26 073 13 gusting 16 16.7
2019-Sep-15 07:21 080 15 gusting 14 16.7
2019-Sep-15 07:11 076 11 gusting 11 17.8
2019-Sep-15 07:06 073 10 gusting 13 17.8
2019-Sep-15 07:01 074 12 gusting 11 17.8
2019-Sep-15 06:56 066 11 gusting 12 17.8
2019-Sep-15 06:51 072 10 gusting 9 17.2
2019-Sep-15 06:36 044 8 gusting 12 16.1
2019-Sep-15 06:31 026 9 gusting 10 16.1
2019-Sep-15 06:26 023 10 gusting 7 16.1
2019-Sep-15 06:21 001 9 gusting 9 16.1
2019-Sep-15 06:16 356 11 gusting 9 15.6
2019-Sep-15 06:11 008 8 gusting 10 15.6
2019-Sep-15 06:01 333 11 gusting 13 14.4
2019-Sep-15 05:56 319 11 gusting 11 14.4
2019-Sep-15 05:46 322 13 gusting 11 13.9
2019-Sep-15 05:41 323 15 gusting 15 13.9
2019-Sep-15 05:31 319 17 gusting 15 13.9
2019-Sep-15 05:23 324 18 gusting 16 13.3
2019-Sep-15 05:16 316 17 gusting 18 13.3
2019-Sep-15 05:11 319 15 gusting 15 13.3
2019-Sep-15 05:06 333 17 gusting 18 13.9
2019-Sep-15 05:01 319 16 gusting 16 13.9
2019-Sep-15 04:56 323 15 gusting 13 13.9
2019-Sep-15 04:51 314 16 gusting 17 13.3
2019-Sep-15 04:46 317 19 gusting 16 13.3
2019-Sep-15 04:41 316 17 gusting 17 13.3
2019-Sep-15 04:36 317 15 gusting 15 13.3
2019-Sep-15 04:31 324 14 gusting 13 13.3
2019-Sep-15 04:26 319 11 gusting 10 13.3
2019-Sep-15 04:21 320 9 gusting 10 13.3
2019-Sep-15 04:16 312 6 gusting 6 13.3
2019-Sep-15 04:11 340 4 gusting 5 13.9
2019-Sep-15 04:06 351 6 gusting 5 14.4
2019-Sep-15 04:01 351 7 gusting 6 14.4
2019-Sep-15 03:56 351 8 gusting 9 14.4
2019-Sep-15 03:51 341 8 gusting 8 14.4
2019-Sep-15 03:46 356 9 gusting 8 14.4
2019-Sep-15 03:41 351 9 gusting 11 14.4
2019-Sep-15 03:36 346 13 gusting 10 14.4
2019-Sep-15 03:31 351 9 gusting 10 14.4
2019-Sep-15 03:26 009 9 gusting 9 14.4
2019-Sep-15 03:21 015 6 gusting 8 14.4
2019-Sep-15 03:16 045 6 gusting 9 14.4
2019-Sep-15 03:11 023 10 gusting 9 15.0
2019-Sep-15 03:06 028 9 gusting 8 15.6
2019-Sep-15 03:01 065 12 gusting 11 15.6
2019-Sep-15 02:56 079 13 gusting 13 16.1
2019-Sep-15 02:51 068 14 gusting 17 16.1
2019-Sep-15 02:46 049 13 gusting 15 16.7
2019-Sep-15 02:41 066 13 gusting 13 16.7
2019-Sep-15 02:36 052 12 gusting 10 16.7
2019-Sep-15 02:32 067 13 gusting 21 16.1
2019-Sep-15 02:26 065 12 gusting 14 15.6
2019-Sep-15 02:21 039 13 gusting 9 14.4
2019-Sep-15 02:16 025 13 gusting 13 15.0
2019-Sep-15 02:11 044 11 gusting 13 15.6
2019-Sep-15 02:06 058 13 gusting 11 15.6
2019-Sep-15 02:01 066 17 gusting 19 15.6
2019-Sep-15 01:56 091 13 gusting 15 15.0
2019-Sep-15 01:51 085 13 gusting 16 14.4
2019-Sep-15 01:46 017 11 gusting 10 13.9
2019-Sep-15 01:41 052 7 gusting 8 13.9
2019-Sep-15 01:31 356 17 gusting 22 13.9
2019-Sep-15 01:26 347 17 gusting 19 13.9
2019-Sep-15 01:21 006 14 gusting 17 13.3
2019-Sep-15 01:16 026 10 gusting 10 13.9
2019-Sep-15 01:12 016 13 gusting 9 14.4
2019-Sep-15 01:07 356 13 gusting 11 15.0
2019-Sep-15 01:01 004 14 gusting 11 15.0
2019-Sep-15 00:56 351 13 gusting 11 15.6
2019-Sep-15 00:51 011 10 gusting 10 15.6
2019-Sep-15 00:46 010 8 gusting 9 15.0
2019-Sep-15 00:41 023 10 gusting 13 15.0
2019-Sep-15 00:36 005 10 gusting 9 15.0
2019-Sep-15 00:31 017 11 gusting 7 14.4
2019-Sep-15 00:26 356 13 gusting 11 14.4
2019-Sep-15 00:22 009 13 gusting 10 14.4
2019-Sep-15 00:16 351 10 gusting 6 14.4
2019-Sep-15 00:11 011 9 gusting 9 13.9
2019-Sep-15 00:06 351 11 gusting 8 14.4
2019-Sep-14 23:56 351 9 gusting 10 13.9
2019-Sep-14 23:51 351 8 gusting 8 13.9
2019-Sep-14 23:46 329 12 gusting 12 13.9
2019-Sep-14 23:36 336 7 gusting 8 15.0
2019-Sep-14 23:31 006 9 gusting 9 15.0
2019-Sep-14 23:26 002 8 gusting 11 15.0
2019-Sep-14 23:21 347 10 gusting 6 15.0
2019-Sep-14 23:16 351 9 gusting 9 15.6
2019-Sep-14 23:11 004 13 gusting 13 16.1
2019-Sep-14 23:06 003 11 gusting 11 15.6
2019-Sep-14 22:56 006 13 gusting 11 16.1
2019-Sep-14 22:51 006 15 gusting 17 16.1
2019-Sep-14 22:46 010 11 gusting 14 15.6
2019-Sep-14 22:42 006 15 gusting 14 16.1
2019-Sep-14 22:36 009 13 gusting 11 16.1
2019-Sep-14 22:31 021 15 gusting 14 16.1
2019-Sep-14 22:26 013 15 gusting 14 16.1
2019-Sep-14 22:16 030 13 gusting 10 16.1
2019-Sep-14 22:11 038 11 gusting 9 16.1
2019-Sep-14 22:06 027 13 gusting 13 15.6
2019-Sep-14 22:01 004 15 gusting 14 14.4